sensor_id;sensor_type;location;lat;lon;timestamp;P1;durP1;ratioP1;P2;durP2;ratioP2
3747;SDS011;1889;50.058;8.688;2022-12-18T00:00:26;21.63;;;11.37;;
3747;SDS011;1889;50.058;8.688;2022-12-18T00:02:55;23.13;;;11.50;;
3747;SDS011;1889;50.058;8.688;2022-12-18T00:05:24;21.07;;;11.63;;
3747;SDS011;1889;50.058;8.688;2022-12-18T00:07:52;26.10;;;12.83;;
3747;SDS011;1889;50.058;8.688;2022-12-18T00:10:22;22.15;;;11.28;;
3747;SDS011;1889;50.058;8.688;2022-12-18T00:12:51;19.87;;;11.53;;
3747;SDS011;1889;50.058;8.688;2022-12-18T00:15:20;19.85;;;11.18;;
3747;SDS011;1889;50.058;8.688;2022-12-18T00:17:49;27.00;;;12.77;;
3747;SDS011;1889;50.058;8.688;2022-12-18T00:20:18;26.03;;;13.43;;
3747;SDS011;1889;50.058;8.688;2022-12-18T00:22:48;19.13;;;10.47;;
3747;SDS011;1889;50.058;8.688;2022-12-18T00:25:17;21.30;;;11.30;;
3747;SDS011;1889;50.058;8.688;2022-12-18T00:27:47;20.05;;;11.03;;
3747;SDS011;1889;50.058;8.688;2022-12-18T00:30:16;20.57;;;9.90;;
3747;SDS011;1889;50.058;8.688;2022-12-18T00:32:45;19.37;;;10.65;;
3747;SDS011;1889;50.058;8.688;2022-12-18T00:35:14;19.80;;;10.60;;
3747;SDS011;1889;50.058;8.688;2022-12-18T00:37:43;20.60;;;10.18;;
3747;SDS011;1889;50.058;8.688;2022-12-18T00:40:11;21.23;;;10.93;;
3747;SDS011;1889;50.058;8.688;2022-12-18T00:42:40;19.57;;;10.20;;
3747;SDS011;1889;50.058;8.688;2022-12-18T00:45:24;18.37;;;10.63;;
3747;SDS011;1889;50.058;8.688;2022-12-18T00:47:55;23.80;;;11.85;;
3747;SDS011;1889;50.058;8.688;2022-12-18T00:50:24;21.07;;;11.00;;
3747;SDS011;1889;50.058;8.688;2022-12-18T00:52:53;17.23;;;9.53;;
3747;SDS011;1889;50.058;8.688;2022-12-18T00:55:22;19.77;;;10.47;;
3747;SDS011;1889;50.058;8.688;2022-12-18T00:57:51;24.70;;;11.30;;
3747;SDS011;1889;50.058;8.688;2022-12-18T01:00:20;17.57;;;9.87;;
3747;SDS011;1889;50.058;8.688;2022-12-18T01:02:49;18.20;;;10.63;;
3747;SDS011;1889;50.058;8.688;2022-12-18T01:05:18;23.17;;;10.23;;
3747;SDS011;1889;50.058;8.688;2022-12-18T01:07:46;18.20;;;10.40;;
3747;SDS011;1889;50.058;8.688;2022-12-18T01:10:15;19.73;;;10.37;;
3747;SDS011;1889;50.058;8.688;2022-12-18T01:12:44;21.40;;;10.50;;
3747;SDS011;1889;50.058;8.688;2022-12-18T01:15:13;20.60;;;10.27;;
3747;SDS011;1889;50.058;8.688;2022-12-18T01:17:42;22.10;;;11.80;;
3747;SDS011;1889;50.058;8.688;2022-12-18T01:20:11;19.20;;;9.63;;
3747;SDS011;1889;50.058;8.688;2022-12-18T01:22:40;21.10;;;10.17;;
3747;SDS011;1889;50.058;8.688;2022-12-18T01:25:09;19.33;;;11.13;;
3747;SDS011;1889;50.058;8.688;2022-12-18T01:27:38;22.23;;;10.30;;
3747;SDS011;1889;50.058;8.688;2022-12-18T01:30:08;23.23;;;11.30;;
3747;SDS011;1889;50.058;8.688;2022-12-18T01:32:56;20.20;;;10.57;;
3747;SDS011;1889;50.058;8.688;2022-12-18T01:35:25;19.60;;;10.68;;
3747;SDS011;1889;50.058;8.688;2022-12-18T01:37:54;21.63;;;10.87;;
3747;SDS011;1889;50.058;8.688;2022-12-18T01:40:23;24.53;;;10.90;;
3747;SDS011;1889;50.058;8.688;2022-12-18T01:42:52;21.73;;;11.97;;
3747;SDS011;1889;50.058;8.688;2022-12-18T01:45:23;18.02;;;10.13;;
3747;SDS011;1889;50.058;8.688;2022-12-18T01:48:04;17.93;;;10.50;;
3747;SDS011;1889;50.058;8.688;2022-12-18T01:50:36;23.17;;;10.67;;
3747;SDS011;1889;50.058;8.688;2022-12-18T01:53:10;22.23;;;10.50;;
3747;SDS011;1889;50.058;8.688;2022-12-18T01:55:43;20.23;;;10.83;;
3747;SDS011;1889;50.058;8.688;2022-12-18T01:58:12;21.23;;;11.23;;
3747;SDS011;1889;50.058;8.688;2022-12-18T02:00:42;17.80;;;10.53;;
3747;SDS011;1889;50.058;8.688;2022-12-18T02:03:11;16.53;;;9.83;;
3747;SDS011;1889;50.058;8.688;2022-12-18T02:05:47;21.50;;;10.37;;
3747;SDS011;1889;50.058;8.688;2022-12-18T02:08:30;22.73;;;11.87;;
3747;SDS011;1889;50.058;8.688;2022-12-18T02:11:06;16.53;;;9.20;;
3747;SDS011;1889;50.058;8.688;2022-12-18T02:16:46;20.37;;;10.30;;
3747;SDS011;1889;50.058;8.688;2022-12-18T02:19:21;23.90;;;11.40;;
3747;SDS011;1889;50.058;8.688;2022-12-18T02:24:35;29.83;;;13.47;;
3747;SDS011;1889;50.058;8.688;2022-12-18T02:27:09;34.43;;;17.17;;
3747;SDS011;1889;50.058;8.688;2022-12-18T02:29:40;23.90;;;11.23;;
3747;SDS011;1889;50.058;8.688;2022-12-18T02:32:13;15.67;;;9.47;;
3747;SDS011;1889;50.058;8.688;2022-12-18T02:34:42;17.70;;;9.95;;
3747;SDS011;1889;50.058;8.688;2022-12-18T02:37:14;19.12;;;9.93;;
3747;SDS011;1889;50.058;8.688;2022-12-18T02:39:46;19.23;;;9.97;;
3747;SDS011;1889;50.058;8.688;2022-12-18T02:42:16;17.43;;;10.03;;
3747;SDS011;1889;50.058;8.688;2022-12-18T02:44:48;22.93;;;11.70;;
3747;SDS011;1889;50.058;8.688;2022-12-18T02:47:19;15.47;;;8.47;;
3747;SDS011;1889;50.058;8.688;2022-12-18T02:49:58;17.50;;;9.77;;
3747;SDS011;1889;50.058;8.688;2022-12-18T02:55:32;19.27;;;9.97;;
3747;SDS011;1889;50.058;8.688;2022-12-18T02:58:20;17.30;;;9.70;;
3747;SDS011;1889;50.058;8.688;2022-12-18T03:01:01;18.23;;;9.30;;
3747;SDS011;1889;50.058;8.688;2022-12-18T03:03:33;17.13;;;8.40;;
3747;SDS011;1889;50.058;8.688;2022-12-18T03:06:07;19.33;;;9.63;;
3747;SDS011;1889;50.058;8.688;2022-12-18T03:08:38;17.97;;;9.13;;
3747;SDS011;1889;50.058;8.688;2022-12-18T03:11:10;18.27;;;9.67;;
3747;SDS011;1889;50.058;8.688;2022-12-18T03:13:43;19.97;;;10.23;;
3747;SDS011;1889;50.058;8.688;2022-12-18T03:16:14;16.43;;;9.23;;
3747;SDS011;1889;50.058;8.688;2022-12-18T03:18:46;19.80;;;9.83;;
3747;SDS011;1889;50.058;8.688;2022-12-18T03:21:17;18.00;;;9.13;;
3747;SDS011;1889;50.058;8.688;2022-12-18T03:23:48;19.23;;;9.03;;
3747;SDS011;1889;50.058;8.688;2022-12-18T03:26:21;18.00;;;9.00;;
3747;SDS011;1889;50.058;8.688;2022-12-18T03:29:02;17.37;;;10.07;;
3747;SDS011;1889;50.058;8.688;2022-12-18T03:31:26;16.17;;;9.97;;
3747;SDS011;1889;50.058;8.688;2022-12-18T03:34:02;19.45;;;9.70;;
3747;SDS011;1889;50.058;8.688;2022-12-18T03:36:32;18.43;;;9.27;;
3747;SDS011;1889;50.058;8.688;2022-12-18T03:39:02;17.10;;;9.60;;
3747;SDS011;1889;50.058;8.688;2022-12-18T03:41:32;17.27;;;8.27;;
3747;SDS011;1889;50.058;8.688;2022-12-18T03:44:13;14.90;;;9.00;;
3747;SDS011;1889;50.058;8.688;2022-12-18T03:47:06;15.13;;;8.83;;
3747;SDS011;1889;50.058;8.688;2022-12-18T03:52:41;16.97;;;9.07;;
3747;SDS011;1889;50.058;8.688;2022-12-18T03:55:05;16.37;;;9.13;;
3747;SDS011;1889;50.058;8.688;2022-12-18T03:57:36;16.63;;;9.23;;
3747;SDS011;1889;50.058;8.688;2022-12-18T04:00:07;17.13;;;8.87;;
3747;SDS011;1889;50.058;8.688;2022-12-18T04:02:45;16.60;;;8.97;;
3747;SDS011;1889;50.058;8.688;2022-12-18T04:05:16;17.70;;;9.40;;
3747;SDS011;1889;50.058;8.688;2022-12-18T04:07:47;17.20;;;9.43;;
3747;SDS011;1889;50.058;8.688;2022-12-18T04:10:19;16.10;;;9.03;;
3747;SDS011;1889;50.058;8.688;2022-12-18T04:12:47;14.20;;;8.27;;
3747;SDS011;1889;50.058;8.688;2022-12-18T04:15:16;14.70;;;9.17;;
3747;SDS011;1889;50.058;8.688;2022-12-18T04:17:51;15.90;;;8.70;;
3747;SDS011;1889;50.058;8.688;2022-12-18T04:20:16;14.93;;;9.03;;
3747;SDS011;1889;50.058;8.688;2022-12-18T04:22:45;16.33;;;8.93;;
3747;SDS011;1889;50.058;8.688;2022-12-18T04:25:14;19.10;;;9.53;;
3747;SDS011;1889;50.058;8.688;2022-12-18T04:27:43;19.73;;;8.50;;
3747;SDS011;1889;50.058;8.688;2022-12-18T04:30:11;15.37;;;8.83;;
3747;SDS011;1889;50.058;8.688;2022-12-18T04:32:40;16.97;;;9.23;;
3747;SDS011;1889;50.058;8.688;2022-12-18T04:35:09;14.90;;;8.77;;
3747;SDS011;1889;50.058;8.688;2022-12-18T04:37:38;13.70;;;8.07;;
3747;SDS011;1889;50.058;8.688;2022-12-18T04:40:07;15.97;;;9.27;;
3747;SDS011;1889;50.058;8.688;2022-12-18T04:42:37;14.77;;;8.53;;
3747;SDS011;1889;50.058;8.688;2022-12-18T04:45:07;15.43;;;8.37;;
3747;SDS011;1889;50.058;8.688;2022-12-18T04:47:36;16.90;;;9.37;;
3747;SDS011;1889;50.058;8.688;2022-12-18T04:50:07;14.00;;;8.07;;
3747;SDS011;1889;50.058;8.688;2022-12-18T04:52:55;15.27;;;8.40;;
3747;SDS011;1889;50.058;8.688;2022-12-18T04:55:24;15.67;;;8.37;;
3747;SDS011;1889;50.058;8.688;2022-12-18T04:57:53;17.60;;;8.90;;
3747;SDS011;1889;50.058;8.688;2022-12-18T05:00:22;16.43;;;8.63;;
3747;SDS011;1889;50.058;8.688;2022-12-18T05:02:50;15.40;;;8.97;;
3747;SDS011;1889;50.058;8.688;2022-12-18T05:05:19;16.63;;;7.60;;
3747;SDS011;1889;50.058;8.688;2022-12-18T05:07:48;18.50;;;9.17;;
3747;SDS011;1889;50.058;8.688;2022-12-18T05:10:17;16.33;;;8.87;;
3747;SDS011;1889;50.058;8.688;2022-12-18T05:12:45;17.67;;;9.03;;
3747;SDS011;1889;50.058;8.688;2022-12-18T05:15:27;13.80;;;7.40;;
3747;SDS011;1889;50.058;8.688;2022-12-18T05:17:59;15.47;;;8.23;;
3747;SDS011;1889;50.058;8.688;2022-12-18T05:20:28;13.53;;;8.50;;
3747;SDS011;1889;50.058;8.688;2022-12-18T05:22:57;15.97;;;8.80;;
3747;SDS011;1889;50.058;8.688;2022-12-18T05:25:26;15.20;;;8.53;;
3747;SDS011;1889;50.058;8.688;2022-12-18T05:27:55;15.57;;;8.13;;
3747;SDS011;1889;50.058;8.688;2022-12-18T05:30:24;17.63;;;8.63;;
3747;SDS011;1889;50.058;8.688;2022-12-18T05:32:53;14.10;;;8.07;;
3747;SDS011;1889;50.058;8.688;2022-12-18T05:35:22;17.97;;;8.97;;
3747;SDS011;1889;50.058;8.688;2022-12-18T05:37:51;17.53;;;9.00;;
3747;SDS011;1889;50.058;8.688;2022-12-18T05:40:19;15.20;;;8.30;;
3747;SDS011;1889;50.058;8.688;2022-12-18T05:42:48;14.53;;;7.93;;
3747;SDS011;1889;50.058;8.688;2022-12-18T05:45:17;16.53;;;9.27;;
3747;SDS011;1889;50.058;8.688;2022-12-18T05:47:47;14.10;;;8.53;;
3747;SDS011;1889;50.058;8.688;2022-12-18T05:50:15;13.60;;;8.63;;
3747;SDS011;1889;50.058;8.688;2022-12-18T05:52:44;14.57;;;7.77;;
3747;SDS011;1889;50.058;8.688;2022-12-18T05:55:13;15.23;;;8.33;;
3747;SDS011;1889;50.058;8.688;2022-12-18T05:57:42;16.53;;;8.33;;
3747;SDS011;1889;50.058;8.688;2022-12-18T06:00:11;16.57;;;7.77;;
3747;SDS011;1889;50.058;8.688;2022-12-18T06:02:40;15.67;;;8.33;;
3747;SDS011;1889;50.058;8.688;2022-12-18T06:05:09;16.47;;;9.03;;
3747;SDS011;1889;50.058;8.688;2022-12-18T06:07:37;17.57;;;9.50;;
3747;SDS011;1889;50.058;8.688;2022-12-18T06:10:06;14.20;;;7.80;;
3747;SDS011;1889;50.058;8.688;2022-12-18T06:12:35;16.40;;;8.07;;
3747;SDS011;1889;50.058;8.688;2022-12-18T06:15:04;20.00;;;9.37;;
3747;SDS011;1889;50.058;8.688;2022-12-18T06:17:34;15.50;;;8.73;;
3747;SDS011;1889;50.058;8.688;2022-12-18T06:20:04;14.40;;;8.80;;
3747;SDS011;1889;50.058;8.688;2022-12-18T06:22:33;15.50;;;7.97;;
3747;SDS011;1889;50.058;8.688;2022-12-18T06:25:02;16.57;;;8.70;;
3747;SDS011;1889;50.058;8.688;2022-12-18T06:27:32;14.07;;;7.83;;
3747;SDS011;1889;50.058;8.688;2022-12-18T06:30:01;15.43;;;8.10;;
3747;SDS011;1889;50.058;8.688;2022-12-18T06:32:30;15.93;;;7.83;;
3747;SDS011;1889;50.058;8.688;2022-12-18T06:35:02;15.30;;;8.57;;
3747;SDS011;1889;50.058;8.688;2022-12-18T06:37:32;14.67;;;8.47;;
3747;SDS011;1889;50.058;8.688;2022-12-18T06:40:00;13.40;;;7.53;;
3747;SDS011;1889;50.058;8.688;2022-12-18T06:42:29;19.00;;;9.43;;
3747;SDS011;1889;50.058;8.688;2022-12-18T06:44:58;15.60;;;8.07;;
3747;SDS011;1889;50.058;8.688;2022-12-18T06:47:27;14.53;;;8.20;;
3747;SDS011;1889;50.058;8.688;2022-12-18T06:49:56;15.70;;;8.33;;
3747;SDS011;1889;50.058;8.688;2022-12-18T06:52:25;17.10;;;8.17;;
3747;SDS011;1889;50.058;8.688;2022-12-18T06:54:53;17.50;;;8.87;;
3747;SDS011;1889;50.058;8.688;2022-12-18T06:57:22;15.53;;;7.93;;
3747;SDS011;1889;50.058;8.688;2022-12-18T06:59:51;17.37;;;7.97;;
3747;SDS011;1889;50.058;8.688;2022-12-18T07:02:20;17.40;;;8.43;;
3747;SDS011;1889;50.058;8.688;2022-12-18T07:04:49;19.20;;;9.30;;
3747;SDS011;1889;50.058;8.688;2022-12-18T07:07:17;13.50;;;8.33;;
3747;SDS011;1889;50.058;8.688;2022-12-18T07:09:47;14.53;;;8.37;;
3747;SDS011;1889;50.058;8.688;2022-12-18T07:12:17;14.30;;;8.20;;
3747;SDS011;1889;50.058;8.688;2022-12-18T07:14:46;14.07;;;8.47;;
3747;SDS011;1889;50.058;8.688;2022-12-18T07:17:15;15.60;;;9.20;;
3747;SDS011;1889;50.058;8.688;2022-12-18T07:19:44;13.03;;;8.03;;
3747;SDS011;1889;50.058;8.688;2022-12-18T07:22:12;15.07;;;7.73;;
3747;SDS011;1889;50.058;8.688;2022-12-18T07:24:41;17.43;;;7.97;;
3747;SDS011;1889;50.058;8.688;2022-12-18T07:27:10;16.17;;;8.10;;
3747;SDS011;1889;50.058;8.688;2022-12-18T07:29:38;12.07;;;7.77;;
3747;SDS011;1889;50.058;8.688;2022-12-18T07:32:07;16.00;;;8.27;;
3747;SDS011;1889;50.058;8.688;2022-12-18T07:34:37;14.63;;;7.97;;
3747;SDS011;1889;50.058;8.688;2022-12-18T07:37:06;15.20;;;8.27;;
3747;SDS011;1889;50.058;8.688;2022-12-18T07:39:35;15.20;;;7.77;;
3747;SDS011;1889;50.058;8.688;2022-12-18T07:42:04;18.73;;;8.73;;
3747;SDS011;1889;50.058;8.688;2022-12-18T07:44:50;16.50;;;8.77;;
3747;SDS011;1889;50.058;8.688;2022-12-18T07:47:19;16.93;;;9.10;;
3747;SDS011;1889;50.058;8.688;2022-12-18T07:49:48;14.97;;;8.20;;
3747;SDS011;1889;50.058;8.688;2022-12-18T07:52:17;12.80;;;7.45;;
3747;SDS011;1889;50.058;8.688;2022-12-18T07:54:46;16.37;;;9.43;;
3747;SDS011;1889;50.058;8.688;2022-12-18T07:57:16;16.30;;;9.00;;
3747;SDS011;1889;50.058;8.688;2022-12-18T07:59:45;15.47;;;8.93;;
3747;SDS011;1889;50.058;8.688;2022-12-18T08:02:14;39.73;;;18.43;;
3747;SDS011;1889;50.058;8.688;2022-12-18T08:04:43;40.30;;;19.50;;
3747;SDS011;1889;50.058;8.688;2022-12-18T08:07:11;65.63;;;29.10;;
3747;SDS011;1889;50.058;8.688;2022-12-18T08:09:41;32.90;;;17.10;;
3747;SDS011;1889;50.058;8.688;2022-12-18T08:12:10;19.97;;;10.93;;
3747;SDS011;1889;50.058;8.688;2022-12-18T08:14:38;22.23;;;11.53;;
3747;SDS011;1889;50.058;8.688;2022-12-18T08:17:07;30.67;;;15.30;;
3747;SDS011;1889;50.058;8.688;2022-12-18T08:19:36;27.30;;;13.40;;
3747;SDS011;1889;50.058;8.688;2022-12-18T08:22:04;16.43;;;10.43;;
3747;SDS011;1889;50.058;8.688;2022-12-18T08:24:33;16.07;;;9.03;;
3747;SDS011;1889;50.058;8.688;2022-12-18T08:27:02;18.30;;;9.43;;
3747;SDS011;1889;50.058;8.688;2022-12-18T08:29:31;16.73;;;9.97;;
3747;SDS011;1889;50.058;8.688;2022-12-18T08:32:00;14.87;;;8.73;;
3747;SDS011;1889;50.058;8.688;2022-12-18T08:34:29;19.37;;;9.47;;
3747;SDS011;1889;50.058;8.688;2022-12-18T08:36:58;19.40;;;9.50;;
3747;SDS011;1889;50.058;8.688;2022-12-18T08:39:26;19.77;;;8.87;;
3747;SDS011;1889;50.058;8.688;2022-12-18T08:41:55;17.83;;;10.77;;
3747;SDS011;1889;50.058;8.688;2022-12-18T08:44:41;19.80;;;10.80;;
3747;SDS011;1889;50.058;8.688;2022-12-18T08:47:10;22.17;;;11.83;;
3747;SDS011;1889;50.058;8.688;2022-12-18T08:49:39;21.13;;;11.63;;
3747;SDS011;1889;50.058;8.688;2022-12-18T08:52:07;23.40;;;12.40;;
3747;SDS011;1889;50.058;8.688;2022-12-18T08:54:36;16.87;;;10.37;;
3747;SDS011;1889;50.058;8.688;2022-12-18T08:57:05;19.53;;;11.80;;
3747;SDS011;1889;50.058;8.688;2022-12-18T08:59:34;20.47;;;10.87;;
3747;SDS011;1889;50.058;8.688;2022-12-18T09:02:02;18.90;;;10.73;;
3747;SDS011;1889;50.058;8.688;2022-12-18T09:04:31;21.70;;;12.47;;
3747;SDS011;1889;50.058;8.688;2022-12-18T09:07:00;20.90;;;11.83;;
3747;SDS011;1889;50.058;8.688;2022-12-18T09:09:29;24.07;;;12.27;;
3747;SDS011;1889;50.058;8.688;2022-12-18T09:11:57;21.93;;;11.30;;
3747;SDS011;1889;50.058;8.688;2022-12-18T09:14:26;18.50;;;11.80;;
3747;SDS011;1889;50.058;8.688;2022-12-18T09:16:55;18.83;;;11.13;;
3747;SDS011;1889;50.058;8.688;2022-12-18T09:19:24;26.70;;;14.53;;
3747;SDS011;1889;50.058;8.688;2022-12-18T09:21:53;26.70;;;14.97;;
3747;SDS011;1889;50.058;8.688;2022-12-18T09:24:21;29.05;;;15.95;;
3747;SDS011;1889;50.058;8.688;2022-12-18T09:26:52;21.60;;;13.20;;
3747;SDS011;1889;50.058;8.688;2022-12-18T09:29:21;21.53;;;12.80;;
3747;SDS011;1889;50.058;8.688;2022-12-18T09:31:50;21.00;;;12.83;;
3747;SDS011;1889;50.058;8.688;2022-12-18T09:34:19;23.93;;;13.23;;
3747;SDS011;1889;50.058;8.688;2022-12-18T09:36:48;25.80;;;12.80;;
3747;SDS011;1889;50.058;8.688;2022-12-18T09:39:17;23.70;;;13.63;;
3747;SDS011;1889;50.058;8.688;2022-12-18T09:41:53;27.50;;;14.63;;
3747;SDS011;1889;50.058;8.688;2022-12-18T09:47:06;27.00;;;13.70;;
3747;SDS011;1889;50.058;8.688;2022-12-18T09:49:50;20.73;;;13.23;;
3747;SDS011;1889;50.058;8.688;2022-12-18T09:52:23;24.37;;;14.47;;
3747;SDS011;1889;50.058;8.688;2022-12-18T09:54:55;24.77;;;13.83;;
3747;SDS011;1889;50.058;8.688;2022-12-18T09:57:28;28.37;;;14.53;;
3747;SDS011;1889;50.058;8.688;2022-12-18T10:00:16;24.00;;;13.95;;
3747;SDS011;1889;50.058;8.688;2022-12-18T10:02:38;25.40;;;14.17;;
3747;SDS011;1889;50.058;8.688;2022-12-18T10:05:09;24.43;;;13.80;;
3747;SDS011;1889;50.058;8.688;2022-12-18T10:10:23;27.70;;;15.48;;
3747;SDS011;1889;50.058;8.688;2022-12-18T10:13:02;26.33;;;14.07;;
3747;SDS011;1889;50.058;8.688;2022-12-18T10:15:36;26.53;;;16.00;;
3747;SDS011;1889;50.058;8.688;2022-12-18T10:18:10;31.52;;;16.20;;
3747;SDS011;1889;50.058;8.688;2022-12-18T10:20:41;26.57;;;14.85;;
3747;SDS011;1889;50.058;8.688;2022-12-18T10:23:18;29.17;;;15.23;;
3747;SDS011;1889;50.058;8.688;2022-12-18T10:26:00;26.60;;;14.23;;
3747;SDS011;1889;50.058;8.688;2022-12-18T10:28:36;28.03;;;14.97;;
3747;SDS011;1889;50.058;8.688;2022-12-18T10:31:07;39.17;;;15.93;;
3747;SDS011;1889;50.058;8.688;2022-12-18T10:33:44;27.90;;;15.57;;
3747;SDS011;1889;50.058;8.688;2022-12-18T10:36:13;28.55;;;15.45;;
3747;SDS011;1889;50.058;8.688;2022-12-18T10:38:42;46.17;;;22.97;;
3747;SDS011;1889;50.058;8.688;2022-12-18T10:44:10;32.85;;;15.58;;
3747;SDS011;1889;50.058;8.688;2022-12-18T10:46:40;24.17;;;14.27;;
3747;SDS011;1889;50.058;8.688;2022-12-18T10:49:18;28.83;;;15.37;;
3747;SDS011;1889;50.058;8.688;2022-12-18T10:52:05;32.50;;;16.00;;
3747;SDS011;1889;50.058;8.688;2022-12-18T10:54:49;28.83;;;13.93;;
3747;SDS011;1889;50.058;8.688;2022-12-18T10:57:31;28.27;;;14.63;;
3747;SDS011;1889;50.058;8.688;2022-12-18T11:03:38;26.87;;;14.57;;
3747;SDS011;1889;50.058;8.688;2022-12-18T11:05:49;29.90;;;14.30;;
3747;SDS011;1889;50.058;8.688;2022-12-18T11:08:21;33.13;;;15.35;;
3747;SDS011;1889;50.058;8.688;2022-12-18T11:10:50;28.92;;;14.93;;
3747;SDS011;1889;50.058;8.688;2022-12-18T11:13:23;25.25;;;13.30;;
3747;SDS011;1889;50.058;8.688;2022-12-18T11:15:55;27.97;;;14.87;;
3747;SDS011;1889;50.058;8.688;2022-12-18T11:18:28;28.77;;;15.00;;
3747;SDS011;1889;50.058;8.688;2022-12-18T11:21:09;33.28;;;15.85;;
3747;SDS011;1889;50.058;8.688;2022-12-18T11:23:47;25.37;;;13.27;;
3747;SDS011;1889;50.058;8.688;2022-12-18T11:26:20;31.03;;;15.40;;
3747;SDS011;1889;50.058;8.688;2022-12-18T11:28:53;28.00;;;14.60;;
3747;SDS011;1889;50.058;8.688;2022-12-18T11:31:23;30.83;;;15.00;;
3747;SDS011;1889;50.058;8.688;2022-12-18T11:34:13;27.90;;;13.58;;
3747;SDS011;1889;50.058;8.688;2022-12-18T11:36:53;30.17;;;15.88;;
3747;SDS011;1889;50.058;8.688;2022-12-18T11:39:24;30.88;;;16.35;;
3747;SDS011;1889;50.058;8.688;2022-12-18T11:50:24;31.45;;;15.72;;
3747;SDS011;1889;50.058;8.688;2022-12-18T11:52:54;26.95;;;14.98;;
3747;SDS011;1889;50.058;8.688;2022-12-18T11:55:45;30.30;;;15.50;;
3747;SDS011;1889;50.058;8.688;2022-12-18T11:58:24;27.67;;;15.58;;
3747;SDS011;1889;50.058;8.688;2022-12-18T12:00:59;33.38;;;15.38;;
3747;SDS011;1889;50.058;8.688;2022-12-18T12:03:50;26.77;;;14.38;;
3747;SDS011;1889;50.058;8.688;2022-12-18T12:06:21;32.20;;;14.73;;
3747;SDS011;1889;50.058;8.688;2022-12-18T12:11:48;28.17;;;15.90;;
3747;SDS011;1889;50.058;8.688;2022-12-18T12:14:27;29.70;;;14.95;;
3747;SDS011;1889;50.058;8.688;2022-12-18T12:22:47;32.05;;;17.17;;
3747;SDS011;1889;50.058;8.688;2022-12-18T12:25:33;32.58;;;14.90;;
3747;SDS011;1889;50.058;8.688;2022-12-18T12:30:44;33.80;;;15.90;;
3747;SDS011;1889;50.058;8.688;2022-12-18T12:34:07;26.42;;;14.25;;
3747;SDS011;1889;50.058;8.688;2022-12-18T12:39:44;29.87;;;16.00;;
3747;SDS011;1889;50.058;8.688;2022-12-18T12:42:27;26.82;;;14.47;;
3747;SDS011;1889;50.058;8.688;2022-12-18T12:45:19;31.85;;;15.53;;
3747;SDS011;1889;50.058;8.688;2022-12-18T12:48:11;29.95;;;14.68;;
3747;SDS011;1889;50.058;8.688;2022-12-18T12:50:39;30.72;;;16.07;;
3747;SDS011;1889;50.058;8.688;2022-12-18T12:53:18;31.55;;;15.78;;
3747;SDS011;1889;50.058;8.688;2022-12-18T12:55:41;26.82;;;15.78;;
3747;SDS011;1889;50.058;8.688;2022-12-18T12:58:16;32.30;;;15.03;;
3747;SDS011;1889;50.058;8.688;2022-12-18T13:00:53;33.98;;;16.52;;
3747;SDS011;1889;50.058;8.688;2022-12-18T13:03:34;31.62;;;15.83;;
3747;SDS011;1889;50.058;8.688;2022-12-18T13:06:18;31.15;;;14.95;;
3747;SDS011;1889;50.058;8.688;2022-12-18T13:08:53;28.10;;;14.38;;
3747;SDS011;1889;50.058;8.688;2022-12-18T13:11:32;29.75;;;15.28;;
3747;SDS011;1889;50.058;8.688;2022-12-18T13:14:36;31.15;;;14.87;;
3747;SDS011;1889;50.058;8.688;2022-12-18T13:17:15;27.17;;;14.15;;
3747;SDS011;1889;50.058;8.688;2022-12-18T13:19:49;29.82;;;14.70;;
3747;SDS011;1889;50.058;8.688;2022-12-18T13:22:28;29.72;;;14.78;;
3747;SDS011;1889;50.058;8.688;2022-12-18T13:24:52;34.20;;;16.75;;
3747;SDS011;1889;50.058;8.688;2022-12-18T13:33:40;28.42;;;14.40;;
3747;SDS011;1889;50.058;8.688;2022-12-18T13:41:03;26.85;;;14.18;;
3747;SDS011;1889;50.058;8.688;2022-12-18T13:43:46;27.50;;;14.28;;
3747;SDS011;1889;50.058;8.688;2022-12-18T13:46:24;26.00;;;14.83;;
3747;SDS011;1889;50.058;8.688;2022-12-18T13:51:48;23.90;;;12.30;;
3747;SDS011;1889;50.058;8.688;2022-12-18T13:56:53;26.82;;;14.00;;
3747;SDS011;1889;50.058;8.688;2022-12-18T13:59:25;31.15;;;15.03;;
3747;SDS011;1889;50.058;8.688;2022-12-18T14:01:57;29.37;;;13.85;;
3747;SDS011;1889;50.058;8.688;2022-12-18T14:04:29;27.20;;;13.38;;
3747;SDS011;1889;50.058;8.688;2022-12-18T14:07:07;26.40;;;13.98;;
3747;SDS011;1889;50.058;8.688;2022-12-18T14:09:53;27.03;;;13.80;;
3747;SDS011;1889;50.058;8.688;2022-12-18T14:12:20;26.48;;;13.62;;
3747;SDS011;1889;50.058;8.688;2022-12-18T14:15:27;28.98;;;14.73;;
3747;SDS011;1889;50.058;8.688;2022-12-18T14:21:00;25.08;;;13.48;;
3747;SDS011;1889;50.058;8.688;2022-12-18T14:23:37;29.52;;;13.98;;
3747;SDS011;1889;50.058;8.688;2022-12-18T14:26:23;27.15;;;14.35;;
3747;SDS011;1889;50.058;8.688;2022-12-18T14:28:49;24.30;;;13.68;;
3747;SDS011;1889;50.058;8.688;2022-12-18T14:31:24;31.10;;;14.18;;
3747;SDS011;1889;50.058;8.688;2022-12-18T14:33:55;27.75;;;13.13;;
3747;SDS011;1889;50.058;8.688;2022-12-18T14:36:24;27.50;;;14.25;;
3747;SDS011;1889;50.058;8.688;2022-12-18T14:38:56;26.52;;;13.43;;
3747;SDS011;1889;50.058;8.688;2022-12-18T14:41:26;27.98;;;13.85;;
3747;SDS011;1889;50.058;8.688;2022-12-18T14:43:56;23.27;;;13.28;;
3747;SDS011;1889;50.058;8.688;2022-12-18T14:46:37;28.45;;;15.80;;
3747;SDS011;1889;50.058;8.688;2022-12-18T14:51:59;32.75;;;16.60;;
3747;SDS011;1889;50.058;8.688;2022-12-18T14:54:30;33.30;;;17.62;;
3747;SDS011;1889;50.058;8.688;2022-12-18T14:57:12;32.17;;;16.87;;
3747;SDS011;1889;50.058;8.688;2022-12-18T14:59:32;26.12;;;14.15;;
3747;SDS011;1889;50.058;8.688;2022-12-18T15:02:03;29.42;;;14.28;;
3747;SDS011;1889;50.058;8.688;2022-12-18T15:04:39;26.90;;;13.18;;
3747;SDS011;1889;50.058;8.688;2022-12-18T15:07:15;31.48;;;15.50;;
3747;SDS011;1889;50.058;8.688;2022-12-18T15:10:03;36.00;;;16.20;;
3747;SDS011;1889;50.058;8.688;2022-12-18T15:12:47;30.35;;;15.03;;
3747;SDS011;1889;50.058;8.688;2022-12-18T15:20:59;31.27;;;15.60;;
3747;SDS011;1889;50.058;8.688;2022-12-18T15:26:17;29.65;;;15.63;;
3747;SDS011;1889;50.058;8.688;2022-12-18T15:28:48;32.53;;;15.83;;
3747;SDS011;1889;50.058;8.688;2022-12-18T15:31:23;29.85;;;15.03;;
3747;SDS011;1889;50.058;8.688;2022-12-18T15:34:19;27.75;;;14.23;;
3747;SDS011;1889;50.058;8.688;2022-12-18T15:36:42;26.70;;;14.10;;
3747;SDS011;1889;50.058;8.688;2022-12-18T15:39:12;27.67;;;14.30;;
3747;SDS011;1889;50.058;8.688;2022-12-18T15:41:41;25.62;;;14.38;;
3747;SDS011;1889;50.058;8.688;2022-12-18T15:44:21;29.35;;;14.53;;
3747;SDS011;1889;50.058;8.688;2022-12-18T15:46:47;28.17;;;15.38;;
3747;SDS011;1889;50.058;8.688;2022-12-18T15:49:16;30.95;;;16.62;;
3747;SDS011;1889;50.058;8.688;2022-12-18T15:51:51;32.40;;;14.95;;
3747;SDS011;1889;50.058;8.688;2022-12-18T15:54:16;32.07;;;15.63;;
3747;SDS011;1889;50.058;8.688;2022-12-18T15:56:47;32.73;;;17.30;;
3747;SDS011;1889;50.058;8.688;2022-12-18T15:59:34;32.67;;;17.90;;
3747;SDS011;1889;50.058;8.688;2022-12-18T16:02:07;35.40;;;17.47;;
3747;SDS011;1889;50.058;8.688;2022-12-18T16:04:35;32.05;;;16.32;;
3747;SDS011;1889;50.058;8.688;2022-12-18T16:07:03;30.62;;;16.15;;
3747;SDS011;1889;50.058;8.688;2022-12-18T16:09:33;27.02;;;14.00;;
3747;SDS011;1889;50.058;8.688;2022-12-18T16:12:03;26.42;;;13.22;;
3747;SDS011;1889;50.058;8.688;2022-12-18T16:14:32;25.15;;;13.38;;
3747;SDS011;1889;50.058;8.688;2022-12-18T16:17:03;25.65;;;13.35;;
3747;SDS011;1889;50.058;8.688;2022-12-18T16:19:34;26.95;;;14.70;;
3747;SDS011;1889;50.058;8.688;2022-12-18T16:22:03;25.20;;;13.48;;
3747;SDS011;1889;50.058;8.688;2022-12-18T16:24:33;26.25;;;13.60;;
3747;SDS011;1889;50.058;8.688;2022-12-18T16:27:03;28.83;;;14.25;;
3747;SDS011;1889;50.058;8.688;2022-12-18T16:29:32;22.22;;;12.65;;
3747;SDS011;1889;50.058;8.688;2022-12-18T16:32:01;25.65;;;14.15;;
3747;SDS011;1889;50.058;8.688;2022-12-18T16:34:31;24.47;;;13.10;;
3747;SDS011;1889;50.058;8.688;2022-12-18T16:37:08;26.80;;;12.50;;
3747;SDS011;1889;50.058;8.688;2022-12-18T16:39:33;27.40;;;13.40;;